createdAt,value
2018-07-12T00:00:37.194Z,62.79
2018-07-12T00:05:19.000Z,62.20
2018-07-12T00:10:01.915Z,62.95
2018-07-12T00:14:43.685Z,63.05
2018-07-12T00:19:26.642Z,62.42
2018-07-12T00:24:08.387Z,63.39
2018-07-12T00:28:53.810Z,63.12
2018-07-12T00:33:35.717Z,62.80
2018-07-12T00:38:21.023Z,63.53
2018-07-12T00:43:02.866Z,63.28
2018-07-12T00:47:45.006Z,63.72
2018-07-12T00:52:26.925Z,63.68
2018-07-12T00:57:13.467Z,63.05
2018-07-12T01:01:55.361Z,63.39
2018-07-12T01:06:37.210Z,63.90
2018-07-12T01:11:20.189Z,62.91
2018-07-12T01:16:02.032Z,63.74
2018-07-12T01:20:47.468Z,62.71
2018-07-12T01:25:29.338Z,63.06
2018-07-12T01:30:14.329Z,63.68
2018-07-12T01:34:56.094Z,63.10
2018-07-12T01:39:43.639Z,63.42
2018-07-12T01:44:25.470Z,63.81
2018-07-12T01:49:07.597Z,63.14
2018-07-12T01:53:49.472Z,64.25
2018-07-12T01:58:34.485Z,63.24
2018-07-12T02:03:16.804Z,64.13
2018-07-12T02:08:01.610Z,64.37
2018-07-12T02:12:43.576Z,64.49
2018-07-12T02:17:28.825Z,63.52
2018-07-12T02:22:10.748Z,63.90
2018-07-12T02:26:53.694Z,63.88
2018-07-12T02:31:35.530Z,65.22
2018-07-12T02:36:17.595Z,64.13
2018-07-12T02:41:00.558Z,64.92
2018-07-12T02:45:42.386Z,63.66
2018-07-12T02:50:25.334Z,64.44
2018-07-12T02:55:07.178Z,63.28
2018-07-12T02:59:52.946Z,63.67
2018-07-12T03:04:34.759Z,64.19
2018-07-12T03:09:16.599Z,64.64
2018-07-12T03:13:58.424Z,64.72
2018-07-12T03:18:40.534Z,65.63
2018-07-12T03:23:22.307Z,65.81
2018-07-12T03:28:05.115Z,66.18
2018-07-12T03:32:47.046Z,66.18
2018-07-12T03:37:32.081Z,66.54
2018-07-12T03:42:13.942Z,66.88
2018-07-12T03:46:58.873Z,66.04
2018-07-12T03:51:40.666Z,66.09
2018-07-12T03:56:22.534Z,66.79
2018-07-12T04:01:04.295Z,66.35
2018-07-12T04:05:46.214Z,68.58
2018-07-12T04:10:31.821Z,68.09
2018-07-12T04:15:13.583Z,68.12
2018-07-12T04:19:56.699Z,69.66
2018-07-12T04:24:38.536Z,69.40
2018-07-12T04:29:20.511Z,69.70
2018-07-12T04:34:02.404Z,69.33
2018-07-12T04:38:47.633Z,69.10
2018-07-12T04:43:29.550Z,70.10
2018-07-12T04:48:14.610Z,70.64
2018-07-12T04:52:56.473Z,72.16
2018-07-12T04:57:41.504Z,71.43
2018-07-12T05:02:23.305Z,72.09
2018-07-12T05:07:08.430Z,72.68
2018-07-12T05:11:50.243Z,71.86
2018-07-12T05:16:33.156Z,72.77
2018-07-12T05:21:15.042Z,74.41
2018-07-12T05:25:56.888Z,74.60
2018-07-12T05:30:39.055Z,73.41
2018-07-12T05:35:20.830Z,73.15
2018-07-12T05:40:08.150Z,73.70
2018-07-12T05:44:51.463Z,73.59
2018-07-12T05:49:38.584Z,74.09
2018-07-12T05:54:22.052Z,69.42
2018-07-12T05:59:08.849Z,69.45
2018-07-12T06:03:52.392Z,67.92
2018-07-12T06:08:37.010Z,68.46
2018-07-12T06:13:20.677Z,68.40
2018-07-12T06:18:05.262Z,68.17
2018-07-12T06:22:50.209Z,66.35
2018-07-12T06:27:34.069Z,64.96
2018-07-12T06:32:17.659Z,65.33
2018-07-12T06:37:04.680Z,65.58
2018-07-12T06:41:48.172Z,64.19
2018-07-12T06:46:36.441Z,63.69
2018-07-12T06:51:19.997Z,63.54
2018-07-12T06:56:03.589Z,63.84
2018-07-12T07:00:47.012Z,64.34
2018-07-12T07:05:30.541Z,62.66
2018-07-12T07:10:15.263Z,62.43
2018-07-12T07:14:58.941Z,62.59
2018-07-12T07:19:43.539Z,63.61
2018-07-12T07:24:27.145Z,62.10
2018-07-12T07:29:10.862Z,60.80
2018-07-12T07:33:54.526Z,61.70
2018-07-12T07:38:41.658Z,60.38
2018-07-12T07:43:25.243Z,60.75
2018-07-12T07:48:08.762Z,60.44
2018-07-12T07:52:52.152Z,60.82
2018-07-12T07:57:35.918Z,62.32
2018-07-12T08:02:19.477Z,60.43
2018-07-12T08:07:06.971Z,60.35
2018-07-12T08:11:51.002Z,60.61
2018-07-12T08:16:37.682Z,60.39
2018-07-12T08:21:21.170Z,58.74
2018-07-12T08:26:08.409Z,60.93
2018-07-12T08:30:53.651Z,60.16
2018-07-12T08:35:37.428Z,57.83
2018-07-12T08:40:22.312Z,61.75
2018-07-12T08:45:05.743Z,61.15
2018-07-12T08:49:49.297Z,58.95
2018-07-12T08:54:32.897Z,55.00
2018-07-12T08:59:16.630Z,56.83
2018-07-12T09:04:00.263Z,56.23
2018-07-12T09:08:44.056Z,56.69
2018-07-12T09:13:28.088Z,57.13
2018-07-12T09:18:12.175Z,58.75
2018-07-12T09:22:55.846Z,54.62
2018-07-12T09:27:40.744Z,56.17
2018-07-12T09:32:24.603Z,55.65
2018-07-12T09:37:08.045Z,55.44
2018-07-12T09:41:51.573Z,53.35
2018-07-12T09:46:36.160Z,57.12
2018-07-12T09:51:19.694Z,54.78
2018-07-12T09:56:06.871Z,53.74
2018-07-12T10:00:55.674Z,53.06
2018-07-12T10:07:48.996Z,57.01
2018-07-12T10:12:36.886Z,53.46
2018-07-12T10:17:25.690Z,54.58
2018-07-12T10:22:10.423Z,55.96
2018-07-12T10:26:55.215Z,54.54
2018-07-12T10:31:38.776Z,56.27
2018-07-12T10:36:22.423Z,57.69
2018-07-12T10:41:05.953Z,53.44
2018-07-12T10:45:52.859Z,50.78
2018-07-12T10:50:37.198Z,52.86
2018-07-12T10:55:20.765Z,53.85
2018-07-12T11:00:10.150Z,56.45
2018-07-12T11:04:53.739Z,52.87
2018-07-12T11:09:40.396Z,52.33
2018-07-12T11:14:23.922Z,49.63
2018-07-12T11:19:07.626Z,51.02
2018-07-12T11:23:51.094Z,51.38
2018-07-12T11:28:38.278Z,52.61
2018-07-12T11:33:48.054Z,51.24
2018-07-12T11:38:37.530Z,51.73
2018-07-12T11:43:21.258Z,49.17
2018-07-12T11:48:06.627Z,49.74
2018-07-12T11:52:51.572Z,49.18
2018-07-12T11:57:36.928Z,50.27
2018-07-12T12:02:21.149Z,50.15
2018-07-12T12:07:05.351Z,48.90
2018-07-12T12:11:49.402Z,49.73
2018-07-12T12:16:33.661Z,52.62
2018-07-12T12:21:17.129Z,51.50
2018-07-12T12:26:01.638Z,50.50
2018-07-12T12:30:45.198Z,51.56
2018-07-12T12:35:32.822Z,50.82
2018-07-12T12:40:16.467Z,49.01
2018-07-12T12:44:59.970Z,52.05
2018-07-12T12:49:47.101Z,49.82
2018-07-12T12:54:30.681Z,51.69
2018-07-12T12:59:17.707Z,50.20
2018-07-12T13:04:01.325Z,51.10
2018-07-12T13:08:45.087Z,48.23
2018-07-12T13:13:28.485Z,50.46
2018-07-12T13:18:12.112Z,49.62
2018-07-12T13:22:55.553Z,50.35
2018-07-12T13:27:39.477Z,54.13
2018-07-12T13:32:22.792Z,49.33
2018-07-12T13:37:06.445Z,50.44
2018-07-12T13:41:50.582Z,50.96
2018-07-12T13:46:35.077Z,50.31
2018-07-12T13:51:18.655Z,48.93
2018-07-12T13:56:02.307Z,52.27
2018-07-12T14:00:45.795Z,51.88
2018-07-12T14:05:30.462Z,51.78
2018-07-12T14:10:13.957Z,52.71
2018-07-12T14:14:57.695Z,52.75
2018-07-12T14:19:41.392Z,52.86
2018-07-12T14:24:24.993Z,49.99
2018-07-12T14:29:08.634Z,52.30
2018-07-12T14:33:52.213Z,52.10
2018-07-12T14:38:35.978Z,52.69
2018-07-12T14:43:19.485Z,52.36
2018-07-12T14:48:03.360Z,55.98
2018-07-12T14:52:46.918Z,56.12
2018-07-12T14:57:30.649Z,56.40
2018-07-12T15:02:14.341Z,57.46
2018-07-12T15:07:02.322Z,58.27
2018-07-12T15:11:45.805Z,57.48
2018-07-12T15:16:33.090Z,58.84
2018-07-12T15:21:16.692Z,58.80
2018-07-12T15:26:04.092Z,59.35
2018-07-12T15:30:47.710Z,59.18
2018-07-12T15:35:32.200Z,59.07
2018-07-12T15:40:15.920Z,59.44
2018-07-12T15:44:59.540Z,58.76
2018-07-12T15:49:43.094Z,59.90
2018-07-12T15:54:26.726Z,58.75
2018-07-12T15:59:13.468Z,58.80
2018-07-12T16:03:57.033Z,58.03
2018-07-12T16:08:41.774Z,58.99
2018-07-12T16:13:25.503Z,59.08
2018-07-12T16:18:08.959Z,59.11
2018-07-12T16:22:52.782Z,59.27
2018-07-12T16:27:36.678Z,59.93
2018-07-12T16:32:20.932Z,58.89
2018-07-12T16:37:09.420Z,58.65
2018-07-12T16:41:53.650Z,59.14
2018-07-12T16:46:38.118Z,58.86
2018-07-12T16:51:21.756Z,58.28
2018-07-12T16:56:08.402Z,57.59
2018-07-12T17:00:52.016Z,57.40
2018-07-12T17:05:38.767Z,58.13
2018-07-12T17:10:22.385Z,57.13
2018-07-12T17:15:06.996Z,57.54
2018-07-12T17:19:50.562Z,57.90
2018-07-12T17:24:34.241Z,58.86
2018-07-12T17:29:17.812Z,58.77
2018-07-12T17:34:01.251Z,58.27
2018-07-12T17:38:46.023Z,59.19
2018-07-12T17:43:29.756Z,59.60
2018-07-12T17:48:13.329Z,59.81
2018-07-12T17:52:56.872Z,59.27
2018-07-12T17:57:40.717Z,59.48
2018-07-12T18:02:24.285Z,59.55
2018-07-12T18:07:49.112Z,60.30
2018-07-12T18:12:49.396Z,60.79
2018-07-12T18:17:37.471Z,60.26
2018-07-12T18:22:21.097Z,60.21
2018-07-12T18:27:04.867Z,59.89
2018-07-12T18:31:48.378Z,60.06
2018-07-12T18:36:33.026Z,59.57
2018-07-12T18:41:16.504Z,59.56
2018-07-12T18:46:01.079Z,59.66
2018-07-12T18:50:44.657Z,60.18
2018-07-12T18:55:31.498Z,59.26
2018-07-12T19:00:14.984Z,59.95
2018-07-12T19:05:02.120Z,60.13
2018-07-12T19:09:45.745Z,59.47
2018-07-12T19:14:29.401Z,59.38
2018-07-12T19:19:12.907Z,59.46
2018-07-12T19:23:56.441Z,59.59
2018-07-12T19:28:40.089Z,59.61
2018-07-12T19:33:23.729Z,59.84
2018-07-12T19:38:08.417Z,59.33
2018-07-12T19:42:52.089Z,59.52
2018-07-12T19:47:39.070Z,58.50
2018-07-12T19:52:22.634Z,59.67
2018-07-12T19:57:10.160Z,59.34
2018-07-12T20:01:53.761Z,58.68
2018-07-12T20:06:40.529Z,59.85
2018-07-12T20:11:24.208Z,59.13
2018-07-12T20:16:11.158Z,58.59
2018-07-12T20:20:54.770Z,58.92
2018-07-12T20:25:42.203Z,59.29
2018-07-12T20:30:25.778Z,59.67
2018-07-12T20:35:10.309Z,60.17
2018-07-12T20:39:53.788Z,59.82
2018-07-12T20:44:40.892Z,58.75
2018-07-12T20:49:24.431Z,59.16
2018-07-12T20:54:08.102Z,59.34
2018-07-12T20:58:51.702Z,58.61
2018-07-12T21:03:35.295Z,58.87
2018-07-12T21:08:19.848Z,59.83
2018-07-12T21:13:03.359Z,59.23
2018-07-12T21:17:50.947Z,59.42
2018-07-12T21:22:34.586Z,59.86
2018-07-12T21:27:18.300Z,60.37
2018-07-12T21:32:01.882Z,61.56
2018-07-12T21:36:45.532Z,60.99
2018-07-12T21:41:29.235Z,60.79
2018-07-12T21:46:16.458Z,61.76
2018-07-12T21:50:59.857Z,61.78
2018-07-12T21:55:44.503Z,61.91
2018-07-12T22:00:30.991Z,62.90
2018-07-12T22:05:17.887Z,62.35
2018-07-12T22:10:01.196Z,62.63
2018-07-12T22:14:48.273Z,62.55
2018-07-12T22:19:31.810Z,61.86
2018-07-12T22:24:18.926Z,62.43
2018-07-12T22:29:02.585Z,62.22
2018-07-12T22:33:46.246Z,63.22
2018-07-12T22:38:29.844Z,64.63
2018-07-12T22:44:42.589Z,63.27
2018-07-12T22:49:26.196Z,63.43
2018-07-12T22:54:13.313Z,62.52
2018-07-12T22:58:56.969Z,63.27
2018-07-12T23:03:40.621Z,63.14
2018-07-12T23:08:24.323Z,63.04
2018-07-12T23:13:07.892Z,62.86
2018-07-12T23:17:52.550Z,62.20
2018-07-12T23:22:36.030Z,62.05
2018-07-12T23:27:20.610Z,62.04
2018-07-12T23:32:04.264Z,62.16
2018-07-12T23:36:51.694Z,61.98
2018-07-12T23:41:35.315Z,62.79
2018-07-12T23:46:22.658Z,62.76
2018-07-12T23:51:06.272Z,62.61
2018-07-12T23:55:53.083Z,62.90
